CheckWX is a tool to help pilots better visualize weather data.  It is not intended as a substitute for an official pre-flight weather briefing.

19:13:43 UTC

KRYW METAR
Lago Vista Tx - Rusty Allen Airport
Lago Vista, Texas, USA
Current

19 mins ago

KRYW 261855Z AUTO 16009G19KT 10SM SCT043 BKN050 29/19 A3006 RMK AO2 T02920190
Observed
May-26 @ 18:55 UTC
Wind
  • 160° at 9 KTS
  • Gusting to 19 KTS
Visibility
10 SM
Flight Rules
VFR
Cloud Levels
  • Scattered at 4,300' AGL
  • Broken at 5,000' AGL
Temperature
29°C / 84°F
Dewpoint
19°C / 66°F
Heat Index
30°C / 86°F
Humidity
55%
Altimeter
30.06" Hg
Pressure
1017.92 hPa
Previous

39 mins ago

KRYW 261835Z AUTO 15009G18KT 130V190 10SM BKN041 BKN050 30/20 A3007 RMK AO2 T02970196
Observed
May-26 @ 18:35 UTC
Wind
  • 150° at 9 KTS
  • Gusting to 18 KTS
Visibility
10 SM
Flight Rules
VFR
Cloud Levels
  • Broken at 4,100' AGL
  • Broken at 5,000' AGL
Temperature
30°C / 86°F
Dewpoint
20°C / 68°F
Heat Index
32°C / 89°F
Humidity
55%
Altimeter
30.07" Hg
Pressure
1018.32 hPa
Previous

59 mins ago

KRYW 261815Z AUTO 15009G18KT 10SM SCT039 BKN047 28/19 A3007 RMK AO2 T02830192
Observed
May-26 @ 18:15 UTC
Wind
  • 150° at 9 KTS
  • Gusting to 18 KTS
Visibility
10 SM
Flight Rules
VFR
Cloud Levels
  • Scattered at 3,900' AGL
  • Broken at 4,700' AGL
Temperature
28°C / 82°F
Dewpoint
19°C / 66°F
Heat Index
29°C / 84°F
Humidity
58%
Altimeter
30.07" Hg
Pressure
1018.32 hPa